createdAt,value
2018-09-14T00:01:46.369Z,18.27
2018-09-14T00:04:14.695Z,18.33
2018-09-14T00:06:43.053Z,19.17
2018-09-14T00:09:12.740Z,18.53
2018-09-14T00:11:41.266Z,19.70
2018-09-14T00:14:09.595Z,18.13
2018-09-14T00:16:38.225Z,17.17
2018-09-14T00:19:06.607Z,16.77
2018-09-14T00:21:35.028Z,19.93
2018-09-14T00:24:03.412Z,16.00
2018-09-14T00:26:31.814Z,19.17
2018-09-14T00:29:00.170Z,16.90
2018-09-14T00:31:28.550Z,16.40
2018-09-14T00:33:56.868Z,15.07
2018-09-14T00:36:25.181Z,14.80
2018-09-14T00:38:53.497Z,14.90
2018-09-14T00:41:21.829Z,14.83
2018-09-14T00:43:50.164Z,13.10
2018-09-14T00:46:18.504Z,13.90
2018-09-14T00:48:46.821Z,16.03
2018-09-14T00:51:15.136Z,13.53
2018-09-14T00:53:43.445Z,14.77
2018-09-14T00:56:13.001Z,12.70
2018-09-14T00:58:41.342Z,14.90
2018-09-14T01:01:10.449Z,14.20
2018-09-14T01:03:38.840Z,14.23
2018-09-14T01:06:07.732Z,12.67
2018-09-14T01:08:36.926Z,14.03
2018-09-14T01:11:05.289Z,13.43
2018-09-14T01:13:33.620Z,14.10
2018-09-14T01:16:02.003Z,14.37
2018-09-14T01:18:30.321Z,12.37
2018-09-14T01:20:59.349Z,13.57
2018-09-14T01:23:27.692Z,13.50
2018-09-14T01:25:56.105Z,12.30
2018-09-14T01:28:24.484Z,12.97
2018-09-14T01:30:52.819Z,11.43
2018-09-14T01:33:21.137Z,10.93
2018-09-14T01:35:54.785Z,11.23
2018-09-14T01:38:23.125Z,11.10
2018-09-14T01:40:51.462Z,11.20
2018-09-14T01:43:19.930Z,11.63
2018-09-14T01:45:48.227Z,11.40
2018-09-14T01:48:16.551Z,10.83
2018-09-14T01:50:44.876Z,11.13
2018-09-14T01:53:13.247Z,10.77
2018-09-14T01:55:41.609Z,8.53
2018-09-14T01:58:09.929Z,10.97
2018-09-14T02:00:38.312Z,11.50
2018-09-14T02:03:06.636Z,9.63
2018-09-14T02:05:34.981Z,8.97
2018-09-14T02:08:03.347Z,8.87
2018-09-14T02:10:31.636Z,9.13
2018-09-14T02:12:59.957Z,9.90
2018-09-14T02:15:28.268Z,8.57
2018-09-14T02:17:56.597Z,9.33
2018-09-14T02:20:24.942Z,10.03
2018-09-14T02:22:53.915Z,9.43
2018-09-14T02:25:22.258Z,8.03
2018-09-14T02:27:51.513Z,9.50
2018-09-14T02:30:19.815Z,9.50
2018-09-14T02:32:48.102Z,8.50
2018-09-14T02:35:16.445Z,8.37
2018-09-14T02:37:44.773Z,8.27
2018-09-14T02:40:13.116Z,7.90
2018-09-14T02:42:41.420Z,7.80
2018-09-14T02:45:09.750Z,7.17
2018-09-14T02:47:38.084Z,8.37
2018-09-14T02:50:06.450Z,8.20
2018-09-14T02:52:34.761Z,7.57
2018-09-14T02:55:03.150Z,10.00
2018-09-14T02:57:31.447Z,8.20
2018-09-14T02:59:59.834Z,10.20
2018-09-14T03:02:28.185Z,10.05
2018-09-14T03:04:56.510Z,8.40
2018-09-14T03:07:24.856Z,9.23
2018-09-14T03:09:53.192Z,10.17
2018-09-14T03:12:21.536Z,9.15
2018-09-14T03:14:49.902Z,8.87
2018-09-14T03:17:19.292Z,8.90
2018-09-14T03:19:47.617Z,7.93
2018-09-14T03:22:15.933Z,9.00
2018-09-14T03:24:44.247Z,8.35
2018-09-14T03:27:12.605Z,9.80
2018-09-14T03:29:40.916Z,8.70
2018-09-14T03:32:09.255Z,9.67
2018-09-14T03:34:37.563Z,7.40
2018-09-14T03:37:06.087Z,7.83
2018-09-14T03:39:34.420Z,7.60
2018-09-14T03:42:03.327Z,7.05
2018-09-14T03:44:32.305Z,6.70
2018-09-14T03:47:00.656Z,7.50
2018-09-14T03:49:29.029Z,6.20
2018-09-14T03:51:57.386Z,7.47
2018-09-14T03:54:25.712Z,7.93
2018-09-14T03:56:54.009Z,8.60
2018-09-14T03:59:22.468Z,8.43
2018-09-14T04:01:50.773Z,6.85
2018-09-14T04:04:19.116Z,7.85
2018-09-14T04:06:47.442Z,8.43
2018-09-14T04:09:15.791Z,8.30
2018-09-14T04:11:44.113Z,8.18
2018-09-14T04:14:12.494Z,9.28
2018-09-14T04:16:41.353Z,8.98
2018-09-14T04:19:09.688Z,7.60
2018-09-14T04:21:38.000Z,9.00
2018-09-14T04:24:06.376Z,7.90
2018-09-14T04:26:34.699Z,7.25
2018-09-14T04:29:03.054Z,7.33
2018-09-14T04:31:32.379Z,8.27
2018-09-14T04:34:01.308Z,8.47
2018-09-14T04:36:29.633Z,9.07
2018-09-14T04:38:57.958Z,8.63
2018-09-14T04:41:26.316Z,8.47
2018-09-14T04:43:54.653Z,8.80
2018-09-14T04:46:22.985Z,7.53
2018-09-14T04:48:51.301Z,6.97
2018-09-14T04:51:19.671Z,7.60
2018-09-14T04:53:47.964Z,7.60
2018-09-14T04:56:16.296Z,8.47
2018-09-14T04:58:44.664Z,10.07
2018-09-14T05:01:12.985Z,9.40
2018-09-14T05:03:41.316Z,10.07
2018-09-14T05:06:09.669Z,11.00
2018-09-14T05:08:37.992Z,8.73
2018-09-14T05:11:07.752Z,10.20
2018-09-14T05:13:36.096Z,10.10
2018-09-14T05:16:04.800Z,8.70
2018-09-14T05:18:33.268Z,8.90
2018-09-14T05:21:04.273Z,8.47
2018-09-14T05:23:32.811Z,8.03
2018-09-14T05:26:01.966Z,8.13
2018-09-14T05:28:30.360Z,9.23
2018-09-14T05:31:03.151Z,9.60
2018-09-14T05:33:32.485Z,9.53
2018-09-14T05:36:01.233Z,8.80
2018-09-14T05:38:29.549Z,9.13
2018-09-14T05:40:57.912Z,9.67
2018-09-14T05:43:26.237Z,9.67
2018-09-14T05:45:54.590Z,11.07
2018-09-14T05:48:24.837Z,11.83
2018-09-14T05:50:53.233Z,12.00
2018-09-14T05:53:21.587Z,11.00
2018-09-14T05:55:49.911Z,12.40
2018-09-14T05:58:18.215Z,11.90
2018-09-14T06:00:46.597Z,12.37
2018-09-14T06:03:15.307Z,11.50
2018-09-14T06:05:43.701Z,11.10
2018-09-14T06:08:12.025Z,10.90
2018-09-14T06:10:40.333Z,9.67
2018-09-14T06:13:08.725Z,11.07
2018-09-14T06:15:45.441Z,11.40
2018-09-14T06:18:14.403Z,11.30
2018-09-14T06:20:52.957Z,11.60
2018-09-14T06:23:21.861Z,13.00
2018-09-14T06:25:51.088Z,12.20
2018-09-14T06:28:19.508Z,12.87
2018-09-14T06:30:48.509Z,13.33
2018-09-14T06:33:16.837Z,14.50
2018-09-14T06:35:45.153Z,14.13
2018-09-14T06:38:14.135Z,13.80
2018-09-14T06:40:42.465Z,12.63
2018-09-14T06:43:10.779Z,13.67
2018-09-14T06:45:39.106Z,13.03
2018-09-14T06:48:07.442Z,15.17
2018-09-14T06:50:35.760Z,14.00
2018-09-14T06:53:04.650Z,13.80
2018-09-14T06:55:33.000Z,12.73
2018-09-14T06:58:01.342Z,14.33
2018-09-14T07:00:29.790Z,15.37
2018-09-14T07:02:58.005Z,15.23
2018-09-14T07:05:26.344Z,13.90
2018-09-14T07:07:54.678Z,16.03
2018-09-14T07:10:23.020Z,14.50
2018-09-14T07:12:51.328Z,14.00
2018-09-14T07:15:19.643Z,15.30
2018-09-14T07:17:47.963Z,14.80
2018-09-14T07:20:18.282Z,15.50
2018-09-14T07:22:46.632Z,14.47
2018-09-14T07:25:15.024Z,14.77
2018-09-14T07:27:43.375Z,13.90
2018-09-14T07:30:11.813Z,14.13
2018-09-14T07:32:40.176Z,14.73
2018-09-14T07:35:08.489Z,15.73
2018-09-14T07:37:36.832Z,14.60
2018-09-14T07:40:05.172Z,14.23
2018-09-14T07:42:33.623Z,14.73
2018-09-14T07:45:01.961Z,15.10
2018-09-14T07:47:30.286Z,16.03
2018-09-14T07:49:58.589Z,16.47
2018-09-14T07:52:26.968Z,16.63
2018-09-14T07:54:55.296Z,15.70
2018-09-14T07:57:23.626Z,15.87
2018-09-14T07:59:51.973Z,16.50
2018-09-14T08:02:20.584Z,17.17
2018-09-14T08:04:49.009Z,18.00
2018-09-14T08:07:17.355Z,17.87
2018-09-14T08:09:46.509Z,16.70
2018-09-14T08:12:14.974Z,17.07
2018-09-14T08:14:43.304Z,17.50
2018-09-14T08:17:11.665Z,16.87
2018-09-14T08:19:40.013Z,15.70
2018-09-14T08:22:08.313Z,16.93
2018-09-14T08:24:36.668Z,16.50
2018-09-14T08:27:05.035Z,16.97
2018-09-14T08:29:33.356Z,16.27
2018-09-14T08:32:01.692Z,17.53
2018-09-14T08:34:30.023Z,18.60
2018-09-14T08:36:58.360Z,19.73
2018-09-14T08:39:26.690Z,18.23
2018-09-14T08:41:55.029Z,18.50
2018-09-14T08:44:23.345Z,18.87
2018-09-14T08:46:51.758Z,19.03
2018-09-14T08:49:20.076Z,18.83
2018-09-14T08:51:48.435Z,19.13
2018-09-14T08:54:16.759Z,19.90
2018-09-14T08:56:45.129Z,19.47
2018-09-14T08:59:13.495Z,20.60
2018-09-14T09:01:41.953Z,20.60
2018-09-14T09:04:10.273Z,25.50
2018-09-14T09:06:38.601Z,34.20
2018-09-14T09:09:09.653Z,20.90
2018-09-14T09:11:37.929Z,39.07
2018-09-14T09:14:06.553Z,25.83
2018-09-14T09:16:34.897Z,21.97
2018-09-14T09:19:03.425Z,19.67
2018-09-14T09:21:31.757Z,19.93
2018-09-14T09:24:00.239Z,20.07
2018-09-14T09:26:28.899Z,20.70
2018-09-14T09:28:57.530Z,21.67
2018-09-14T09:31:25.867Z,20.50
2018-09-14T09:33:54.272Z,23.20
2018-09-14T09:36:22.625Z,23.70
2018-09-14T09:38:51.798Z,26.40
2018-09-14T09:41:20.113Z,24.67
2018-09-14T09:43:48.501Z,25.90
2018-09-14T09:46:16.764Z,26.47
2018-09-14T09:48:45.150Z,23.27
2018-09-14T09:51:13.560Z,25.53
2018-09-14T09:53:41.897Z,26.10
2018-09-14T09:56:10.897Z,26.70
2018-09-14T09:58:40.851Z,26.50
2018-09-14T10:01:14.408Z,24.87
2018-09-14T10:03:44.903Z,25.80
2018-09-14T10:06:19.453Z,27.50
2018-09-14T10:08:47.800Z,28.37
2018-09-14T10:11:16.107Z,28.00
2018-09-14T10:13:44.452Z,27.70
2018-09-14T10:16:12.771Z,26.80
2018-09-14T10:18:41.114Z,25.97
2018-09-14T10:21:09.483Z,26.30
2018-09-14T10:23:37.777Z,24.47
2018-09-14T10:26:07.319Z,25.47
2018-09-14T10:28:35.631Z,24.37
2018-09-14T10:31:03.963Z,23.50
2018-09-14T10:33:32.331Z,19.57
2018-09-14T10:36:00.867Z,17.53
2018-09-14T10:38:29.862Z,19.30
2018-09-14T10:40:58.208Z,17.83
2018-09-14T10:43:26.546Z,15.70
2018-09-14T10:45:54.884Z,12.27
2018-09-14T10:48:23.188Z,11.53
2018-09-14T10:50:51.524Z,8.27
2018-09-14T10:53:19.836Z,7.53
2018-09-14T10:55:48.153Z,9.70
2018-09-14T10:58:16.453Z,9.20
2018-09-14T11:00:45.215Z,9.70
2018-09-14T11:03:13.520Z,10.47
2018-09-14T11:05:41.851Z,10.93
2018-09-14T11:08:10.165Z,10.03
2018-09-14T11:10:38.504Z,9.97
2018-09-14T11:13:06.862Z,10.90
2018-09-14T11:15:35.165Z,10.67
2018-09-14T11:18:03.499Z,9.63
2018-09-14T11:20:31.849Z,9.27
2018-09-14T11:23:00.147Z,9.00
2018-09-14T11:25:28.520Z,9.30
2018-09-14T11:27:56.839Z,10.40
2018-09-14T11:30:25.106Z,9.00
2018-09-14T11:32:53.409Z,11.03
2018-09-14T11:35:21.739Z,10.90
2018-09-14T11:37:50.156Z,8.93
2018-09-14T11:40:18.426Z,11.17
2018-09-14T11:42:46.732Z,10.20
2018-09-14T11:45:15.072Z,10.70
2018-09-14T11:47:43.368Z,12.00
2018-09-14T11:50:11.733Z,11.20
2018-09-14T11:52:40.073Z,11.60
2018-09-14T11:55:08.393Z,11.20
2018-09-14T11:57:36.752Z,11.73
2018-09-14T12:00:05.151Z,11.50
2018-09-14T12:02:33.480Z,11.60
2018-09-14T12:05:01.807Z,12.13
2018-09-14T12:07:34.340Z,10.20
2018-09-14T12:10:02.753Z,11.10
2018-09-14T12:12:34.021Z,11.80
2018-09-14T12:15:02.388Z,11.60
2018-09-14T12:17:30.787Z,11.00
2018-09-14T12:20:05.885Z,8.37
2018-09-14T12:22:34.260Z,8.30
2018-09-14T12:25:02.596Z,9.20
2018-09-14T12:27:30.922Z,9.83
2018-09-14T12:29:59.254Z,9.37
2018-09-14T12:32:27.564Z,7.23
2018-09-14T12:34:55.872Z,9.20
2018-09-14T12:37:24.221Z,8.80
2018-09-14T12:39:59.229Z,7.90
2018-09-14T12:42:27.580Z,8.00
2018-09-14T12:44:55.869Z,7.50
2018-09-14T12:47:24.575Z,8.33
2018-09-14T12:49:52.877Z,7.60
2018-09-14T12:52:21.209Z,6.33
2018-09-14T12:54:49.537Z,7.30
2018-09-14T12:57:17.850Z,5.70
2018-09-14T12:59:46.178Z,7.43
2018-09-14T13:02:14.504Z,9.00
2018-09-14T13:04:42.809Z,7.03
2018-09-14T13:07:11.186Z,7.83
2018-09-14T13:09:39.525Z,7.70
2018-09-14T13:12:08.457Z,7.30
2018-09-14T13:14:36.771Z,7.50
2018-09-14T13:17:09.316Z,7.30
2018-09-14T13:19:37.741Z,7.17
2018-09-14T13:22:06.301Z,8.47
2018-09-14T13:24:34.660Z,7.37
2018-09-14T13:27:02.972Z,7.80
2018-09-14T13:29:31.297Z,7.57
2018-09-14T13:31:59.645Z,6.70
2018-09-14T13:34:27.951Z,5.87
2018-09-14T13:36:56.282Z,6.83
2018-09-14T13:39:24.600Z,6.90
2018-09-14T13:41:52.929Z,5.90
2018-09-14T13:44:21.254Z,5.13
2018-09-14T13:46:49.569Z,6.67
2018-09-14T13:49:18.855Z,5.43
2018-09-14T13:51:47.139Z,6.10
2018-09-14T13:54:16.137Z,6.40
2018-09-14T13:56:44.457Z,6.10
2018-09-14T13:59:12.812Z,5.87
2018-09-14T14:01:41.252Z,7.07
2018-09-14T14:04:11.004Z,6.20
2018-09-14T14:06:39.336Z,6.73
2018-09-14T14:09:09.587Z,6.33
2018-09-14T14:11:38.269Z,5.73
2018-09-14T14:14:06.809Z,5.30
2018-09-14T14:16:35.715Z,5.33
2018-09-14T14:19:04.054Z,5.00
2018-09-14T14:21:32.389Z,5.80
2018-09-14T14:24:01.418Z,4.60
2018-09-14T14:26:29.927Z,15.20
2018-09-14T14:28:59.138Z,5.17
2018-09-14T14:31:27.502Z,5.60
2018-09-14T14:33:55.817Z,4.93
2018-09-14T14:36:24.335Z,5.50
2018-09-14T14:38:53.686Z,5.47
2018-09-14T14:41:22.133Z,4.60
2018-09-14T14:43:51.062Z,5.13
2018-09-14T14:46:21.216Z,6.63
2018-09-14T14:48:49.620Z,3.43
2018-09-14T14:51:19.208Z,3.10
2018-09-14T14:53:47.612Z,4.30
2018-09-14T14:56:15.968Z,3.60
2018-09-14T14:58:44.301Z,3.50
2018-09-14T15:01:12.670Z,3.60
2018-09-14T15:03:40.972Z,3.73
2018-09-14T15:06:09.278Z,3.93
2018-09-14T15:08:37.606Z,3.60
2018-09-14T15:11:07.950Z,3.90
2018-09-14T15:13:36.375Z,3.00
2018-09-14T15:16:05.247Z,2.90
2018-09-14T15:18:33.580Z,2.67
2018-09-14T15:21:01.941Z,3.50
2018-09-14T15:23:30.271Z,3.53
2018-09-14T15:25:58.573Z,3.90
2018-09-14T15:28:26.886Z,3.53
2018-09-14T15:30:55.192Z,3.57
2018-09-14T15:33:23.832Z,2.70
2018-09-14T15:35:52.291Z,2.87
2018-09-14T15:38:30.406Z,2.93
2018-09-14T15:44:13.612Z,3.47
2018-09-14T15:46:42.004Z,4.07
2018-09-14T15:49:14.509Z,3.73
2018-09-14T15:51:42.952Z,3.73
2018-09-14T15:54:11.255Z,3.50
2018-09-14T15:56:40.359Z,3.00
2018-09-14T15:59:15.352Z,3.93
2018-09-14T16:01:43.673Z,3.20
2018-09-14T16:04:12.999Z,3.30
2018-09-14T16:06:41.421Z,3.37
2018-09-14T16:09:10.679Z,3.30
2018-09-14T16:11:39.106Z,4.10
2018-09-14T16:14:07.525Z,2.87
2018-09-14T16:16:35.878Z,4.90
2018-09-14T16:19:04.575Z,3.70
2018-09-14T16:21:33.070Z,4.60
2018-09-14T16:24:01.396Z,3.47
2018-09-14T16:26:29.781Z,3.07
2018-09-14T16:28:58.241Z,3.73
2018-09-14T16:31:27.239Z,3.43
2018-09-14T16:33:55.577Z,3.63
2018-09-14T16:36:26.176Z,3.10
2018-09-14T16:38:54.534Z,3.27
2018-09-14T16:41:22.845Z,3.07
2018-09-14T16:43:52.209Z,2.97
2018-09-14T16:46:20.582Z,2.73
2018-09-14T16:48:48.915Z,3.30
2018-09-14T16:51:17.467Z,3.10
2018-09-14T16:53:46.520Z,2.70
2018-09-14T16:56:14.857Z,2.73
2018-09-14T16:58:43.160Z,3.03
2018-09-14T17:01:11.479Z,5.60
2018-09-14T17:03:39.824Z,14.50
2018-09-14T17:06:08.696Z,7.40
2018-09-14T17:08:37.125Z,8.53
2018-09-14T17:11:05.483Z,8.70
2018-09-14T17:13:33.792Z,3.50
2018-09-14T17:16:02.190Z,5.70
2018-09-14T17:18:30.498Z,3.20
2018-09-14T17:20:59.132Z,8.53
2018-09-14T17:23:27.440Z,6.00
2018-09-14T17:25:55.782Z,3.67
2018-09-14T17:28:24.081Z,6.20
2018-09-14T17:30:52.411Z,6.57
2018-09-14T17:33:20.738Z,3.67
2018-09-14T17:35:49.062Z,3.50
2018-09-14T17:38:17.466Z,3.07
2018-09-14T17:40:45.720Z,3.50
2018-09-14T17:43:14.123Z,3.73
2018-09-14T17:45:42.512Z,3.50
2018-09-14T17:48:10.845Z,3.27
2018-09-14T17:50:39.296Z,4.80
2018-09-14T17:53:07.616Z,5.17
2018-09-14T17:55:36.005Z,2.97
2018-09-14T17:58:04.333Z,3.20
2018-09-14T18:00:32.762Z,3.37
2018-09-14T18:03:01.071Z,3.57
2018-09-14T18:05:29.445Z,3.87
2018-09-14T18:07:58.021Z,4.17
2018-09-14T18:10:26.348Z,3.00
2018-09-14T18:12:54.737Z,6.83
2018-09-14T18:15:23.395Z,6.73
2018-09-14T18:17:51.720Z,7.33
2018-09-14T18:20:20.048Z,6.87
2018-09-14T18:22:48.357Z,4.00
2018-09-14T18:25:16.841Z,5.43
2018-09-14T18:27:45.280Z,4.23
2018-09-14T18:30:13.470Z,4.77
2018-09-14T18:32:41.921Z,3.00
2018-09-14T18:35:10.253Z,2.20
2018-09-14T18:37:38.741Z,3.30
2018-09-14T18:40:07.107Z,2.63
2018-09-14T18:42:37.752Z,3.13
2018-09-14T18:45:06.116Z,2.90
2018-09-14T18:47:34.431Z,2.80
2018-09-14T18:50:02.976Z,3.03
2018-09-14T18:52:31.740Z,3.13
2018-09-14T18:55:00.012Z,3.40
2018-09-14T18:57:28.446Z,3.23
2018-09-14T18:59:56.907Z,3.00
2018-09-14T19:02:25.234Z,3.33
2018-09-14T19:04:53.664Z,3.77
2018-09-14T19:07:21.988Z,6.40
2018-09-14T19:09:50.319Z,7.00
2018-09-14T19:12:18.633Z,7.00
2018-09-14T19:14:47.012Z,6.40
2018-09-14T19:17:15.337Z,4.80
2018-09-14T19:19:43.649Z,4.03
2018-09-14T19:22:11.985Z,3.90
2018-09-14T19:24:40.474Z,4.30
2018-09-14T19:27:09.847Z,3.60
2018-09-14T19:29:48.088Z,4.90
2018-09-14T19:32:19.417Z,3.43
2018-09-14T19:34:50.450Z,4.70
2018-09-14T19:37:23.193Z,4.13
2018-09-14T19:39:55.834Z,4.33
2018-09-14T19:42:38.792Z,3.00
2018-09-14T19:45:14.211Z,3.83
2018-09-14T19:50:50.462Z,3.73
2018-09-14T19:53:18.881Z,3.50
2018-09-14T19:55:47.249Z,3.20
2018-09-14T19:58:16.013Z,3.37
2018-09-14T20:00:46.429Z,4.00
2018-09-14T20:03:14.777Z,4.07
2018-09-14T20:05:43.760Z,3.47
2018-09-14T20:08:12.689Z,3.80
2018-09-14T20:10:41.627Z,4.37
2018-09-14T20:13:10.421Z,4.67
2018-09-14T20:15:38.804Z,5.97
2018-09-14T20:18:07.197Z,3.77
2018-09-14T20:20:39.640Z,4.30
2018-09-14T20:23:07.981Z,4.50
2018-09-14T20:25:36.332Z,4.57
2018-09-14T20:28:04.941Z,4.17
2018-09-14T20:30:33.268Z,3.90
2018-09-14T20:33:01.579Z,3.93
2018-09-14T20:35:29.985Z,4.20
2018-09-14T20:37:58.665Z,4.07
2018-09-14T20:40:26.997Z,4.77
2018-09-14T20:42:55.343Z,4.27
2018-09-14T20:45:23.651Z,5.50
2018-09-14T20:47:52.006Z,5.50
2018-09-14T20:50:20.486Z,4.63
2018-09-14T20:52:48.801Z,4.63
2018-09-14T20:55:17.242Z,4.73
2018-09-14T20:57:45.549Z,5.13
2018-09-14T21:00:16.984Z,4.27
2018-09-14T21:02:45.612Z,4.13
2018-09-14T21:05:14.001Z,3.97
2018-09-14T21:07:42.296Z,3.97
2018-09-14T21:10:10.623Z,4.30
2018-09-14T21:12:39.000Z,4.20
2018-09-14T21:15:07.393Z,3.80
2018-09-14T21:17:35.812Z,4.83
2018-09-14T21:20:04.744Z,4.43
2018-09-14T21:22:33.114Z,4.70
2018-09-14T21:25:01.430Z,4.70
2018-09-14T21:27:30.639Z,4.30
2018-09-14T21:29:58.989Z,4.30
2018-09-14T21:32:27.360Z,4.50
2018-09-14T21:34:55.747Z,4.67
2018-09-14T21:37:24.177Z,4.23
2018-09-14T21:39:53.674Z,4.80
2018-09-14T21:42:22.829Z,5.10
2018-09-14T21:44:51.158Z,4.63
2018-09-14T21:47:27.718Z,3.67
2018-09-14T21:49:56.092Z,5.20
2018-09-14T21:52:24.410Z,4.97
2018-09-14T21:54:53.546Z,5.00
2018-09-14T21:57:21.904Z,4.30
2018-09-14T21:59:50.530Z,5.30
2018-09-14T22:02:18.917Z,4.50
2018-09-14T22:04:47.260Z,5.10
2018-09-14T22:07:15.594Z,5.03
2018-09-14T22:09:44.536Z,5.00
2018-09-14T22:12:12.978Z,4.90
2018-09-14T22:14:41.288Z,5.20
2018-09-14T22:17:09.617Z,5.23
2018-09-14T22:19:37.925Z,5.00
2018-09-14T22:22:06.386Z,4.97
2018-09-14T22:24:34.822Z,5.10
2018-09-14T22:27:03.133Z,4.87
2018-09-14T22:29:31.899Z,4.97
2018-09-14T22:32:00.205Z,4.93
2018-09-14T22:34:28.581Z,4.60
2018-09-14T22:36:56.904Z,5.60
2018-09-14T22:39:25.345Z,5.50
2018-09-14T22:41:53.721Z,5.40
2018-09-14T22:44:22.066Z,5.00
2018-09-14T22:46:50.477Z,4.50
2018-09-14T22:49:18.788Z,5.33
2018-09-14T22:51:47.128Z,5.60
2018-09-14T22:54:15.446Z,4.60
2018-09-14T22:56:43.782Z,4.80
2018-09-14T22:59:12.266Z,5.10
2018-09-14T23:01:41.220Z,3.77
2018-09-14T23:04:09.557Z,4.50
2018-09-14T23:06:37.885Z,3.73
2018-09-14T23:09:07.475Z,3.90
2018-09-14T23:11:35.794Z,4.07
2018-09-14T23:14:04.128Z,3.90
2018-09-14T23:16:32.568Z,4.10
2018-09-14T23:19:01.545Z,4.07
2018-09-14T23:21:29.935Z,3.90
2018-09-14T23:23:59.144Z,3.40
2018-09-14T23:26:28.112Z,3.10
2018-09-14T23:28:56.469Z,3.93
2018-09-14T23:31:24.828Z,3.93
2018-09-14T23:33:53.172Z,3.30
2018-09-14T23:36:21.552Z,4.00
2018-09-14T23:38:50.076Z,3.00
2018-09-14T23:41:18.398Z,3.50
2018-09-14T23:43:46.722Z,3.93
2018-09-14T23:46:15.115Z,4.00
2018-09-14T23:48:43.533Z,3.33
2018-09-14T23:51:11.856Z,3.43
2018-09-14T23:53:40.668Z,3.57
2018-09-14T23:56:09.002Z,3.67
2018-09-14T23:58:37.312Z,3.10
